YM Initiative — A8HX4 — position and weather

sailwx.info

Track history (hours):
 
Tides and Currents Weather Stations Pressure Air Temp Water Temp Dewpoint Dewpoint Depression Visibility Wind Speed Wind Dir Waves Ship Positions

YM Initiative

Last reported at 2015-May-30 03:27 UTC. Time now 2015-May-30 12:33 UTC.
Position N 02°05' E 102°07'.

Length 173 m; draft 7.7 m.

Type: Cargo ship. MMSI: 635961368.

Date/timePositionNaut miles runAvg speedWind from/ knotsBaromVisibWave heightAir tempDewpointWater temp
2015-May-30 03:27N 02°05' E 102°07'1517.0
2015-May-30 02:33N 01°56' E 102°20'1716.7
2015-May-30 01:33N 01°49' E 102°35'1616.1
2015-May-30 00:33N 01°42' E 102°50'1615.7
2015-May-29 23:33N 01°34' E 103°03'4314.3
2015-May-29 20:32N 01°13' E 103°41'6 6.7
2015-May-29 19:33N 01°16' E 103°47'0 0.1
2015-May-29 18:31N 01°17' E 103°47'0 0.0
2015-May-29 17:31N 01°17' E 103°47'0 0.0
2015-May-29 16:25N 01°17' E 103°47'0 0.0
2015-May-29 15:31N 01°17' E 103°47'0 0.0
2015-May-29 14:31N 01°17' E 103°47'0 0.0
2015-May-29 13:31N 01°17' E 103°47'0 0.0
2015-May-29 12:31N 01°17' E 103°47'0 0.0
2015-May-29 11:31N 01°17' E 103°47'0 0.0
2015-May-29 10:19N 01°17' E 103°47'0 0.0
2015-May-29 09:25N 01°17' E 103°47'3 3.2
2015-May-29 08:33N 01°14' E 103°47'9 9.0
2015-May-29 07:31N 01°14' E 103°57'1111.1
2015-May-29 06:33N 01°17' E 104°07'  
2015-May-23 09:03N 01°15' E 104°04'815.3
2015-May-23 08:33N 01°13' E 103°56'1010.2
2015-May-23 07:33N 01°16' E 103°46'1 1.0
2015-May-23 06:28N 01°17' E 103°47'0 0.0
2015-May-23 05:28N 01°17' E 103°47'0 0.0
2015-May-23 04:31N 01°17' E 103°47'0 0.0
2015-May-23 03:25N 01°17' E 103°47'0 0.0
2015-May-23 02:28N 01°17' E 103°47'0 0.0
2015-May-23 01:28N 01°17' E 103°47'0 0.0
2015-May-23 00:31N 01°17' E 103°47'0 0.0
2015-May-22 23:22N 01°17' E 103°47'0 0.0
2015-May-22 22:31N 01°17' E 103°47'0 0.0
2015-May-22 21:31N 01°17' E 103°47'0 0.0
2015-May-22 20:28N 01°17' E 103°47'0 0.0
2015-May-22 19:31N 01°17' E 103°47'0 0.0
2015-May-22 18:28N 01°17' E 103°47'0 0.0
2015-May-22 17:28N 01°17' E 103°47'0 0.0
2015-May-22 16:28N 01°17' E 103°47'0 0.0
2015-May-22 15:28N 01°17' E 103°47'0 0.0
2015-May-22 14:31N 01°17' E 103°47'2 1.8
2015-May-22 13:33N 01°15' E 103°47'1 0.8
2015-May-22 12:14N 01°14' E 103°47'0 0.5
2015-May-22 11:33N 01°14' E 103°47'6 6.0
2015-May-22 10:33N 01°13' E 103°53'5 4.6
2015-May-22 09:33N 01°15' E 103°58'6 6.3
2015-May-22 08:33N 01°16' E 104°04'6 6.0
2015-May-22 07:33N 01°17' E 104°10'  
Track history (hours):
 
Tides and Currents Weather Stations Pressure Air Temp Water Temp Dewpoint Dewpoint Depression Visibility Wind Speed Wind Dir Waves Ship Positions

YM Initiative

Last reported at 2015-May-30 03:27 UTC. Time now 2015-May-30 12:33 UTC.
Position N 02°05' E 102°07'.

Length 173 m; draft 7.7 m.

Type: Cargo ship. MMSI: 635961368.

Date/timePositionNaut miles runAvg speedWind from/ knotsBaromVisibWave heightAir tempDewpointWater temp
2015-May-30 03:27N 02°05' E 102°07'1517.0
2015-May-30 02:33N 01°56' E 102°20'1716.7
2015-May-30 01:33N 01°49' E 102°35'1616.1
2015-May-30 00:33N 01°42' E 102°50'1615.7
2015-May-29 23:33N 01°34' E 103°03'4314.3
2015-May-29 20:32N 01°13' E 103°41'6 6.7
2015-May-29 19:33N 01°16' E 103°47'0 0.1
2015-May-29 18:31N 01°17' E 103°47'0 0.0
2015-May-29 17:31N 01°17' E 103°47'0 0.0
2015-May-29 16:25N 01°17' E 103°47'0 0.0
2015-May-29 15:31N 01°17' E 103°47'0 0.0
2015-May-29 14:31N 01°17' E 103°47'0 0.0
2015-May-29 13:31N 01°17' E 103°47'0 0.0
2015-May-29 12:31N 01°17' E 103°47'0 0.0
2015-May-29 11:31N 01°17' E 103°47'0 0.0
2015-May-29 10:19N 01°17' E 103°47'0 0.0
2015-May-29 09:25N 01°17' E 103°47'3 3.2
2015-May-29 08:33N 01°14' E 103°47'9 9.0
2015-May-29 07:31N 01°14' E 103°57'1111.1
2015-May-29 06:33N 01°17' E 104°07'  
2015-May-23 09:03N 01°15' E 104°04'815.3
2015-May-23 08:33N 01°13' E 103°56'1010.2
2015-May-23 07:33N 01°16' E 103°46'1 1.0
2015-May-23 06:28N 01°17' E 103°47'0 0.0
2015-May-23 05:28N 01°17' E 103°47'0 0.0
2015-May-23 04:31N 01°17' E 103°47'0 0.0
2015-May-23 03:25N 01°17' E 103°47'0 0.0
2015-May-23 02:28N 01°17' E 103°47'0 0.0
2015-May-23 01:28N 01°17' E 103°47'0 0.0
2015-May-23 00:31N 01°17' E 103°47'0 0.0
2015-May-22 23:22N 01°17' E 103°47'0 0.0
2015-May-22 22:31N 01°17' E 103°47'0 0.0
2015-May-22 21:31N 01°17' E 103°47'0 0.0
2015-May-22 20:28N 01°17' E 103°47'0 0.0
2015-May-22 19:31N 01°17' E 103°47'0 0.0
2015-May-22 18:28N 01°17' E 103°47'0 0.0
2015-May-22 17:28N 01°17' E 103°47'0 0.0
2015-May-22 16:28N 01°17' E 103°47'0 0.0
2015-May-22 15:28N 01°17' E 103°47'0 0.0
2015-May-22 14:31N 01°17' E 103°47'2 1.8
2015-May-22 13:33N 01°15' E 103°47'1 0.8
2015-May-22 12:14N 01°14' E 103°47'0 0.5
2015-May-22 11:33N 01°14' E 103°47'6 6.0
2015-May-22 10:33N 01°13' E 103°53'5 4.6
2015-May-22 09:33N 01°15' E 103°58'6 6.3
2015-May-22 08:33N 01°16' E 104°04'6 6.0
2015-May-22 07:33N 01°17' E 104°10'  

Dump ship's entire track history